KABY/ABY METAR and TAF weather

Enter ICAO airport designator
Station Type Date Time Source
KABY METAR 2020/04/09 18:53 UTC NOAA

KABY 091853Z 29015G20KT 10SM CLR 32/16 A2977 RMK AO2 SLP079 T03220161


Station Type Date Time Source
KABY Decoded METAR 2020/04/09 18:53 UTC NOAA

ALBANY SOUTHWEST GEORGIA, GA, United States (KABY) 31-32N 084-12W 58M
Apr 09, 2020 - 02:53 PM EDT / 2020.04.09 1853 UTC
Wind: from the WNW (290 degrees) at 17 MPH (15 KT) gusting to 23 MPH (20 KT):0
Visibility: 10 mile(s):0
Sky conditions: clear
Temperature: 90.0 F (32.2 C)
Dew Point: 61.0 F (16.1 C)
Relative Humidity: 38%
Pressure (altimeter): 29.77 in. Hg (1008 hPa)
ob: KABY 091853Z 29015G20KT 10SM CLR 32/16 A2977 RMK AO2 SLP079 T03220161
cycle: 19

Station Type Date Time Source
KABY TAF 2020/04/09 18:24 UTC NOAA

TAF KABY 091723Z 0918/1018 30008KT P6SM SCT045
FM100300 35005KT P6SM SCT090
FM101400 35010KT P6SM SCT040

Example: see airport list